sensor_id;sensor_type;location;lat;lon;timestamp;pressure;altitude;pressure_sealevel;temperature;humidity
57572;BME280;44459;43.522;24.470;2023-02-18T00:00:11;100864.22;;;4.18;74.98
57572;BME280;44459;43.522;24.470;2023-02-18T00:02:37;100859.25;;;4.24;74.67
57572;BME280;44459;43.522;24.470;2023-02-18T00:05:03;100855.94;;;4.28;74.14
57572;BME280;44459;43.522;24.470;2023-02-18T00:07:35;100855.09;;;4.29;74.67
57572;BME280;44459;43.522;24.470;2023-02-18T00:10:02;100851.72;;;4.31;74.76
57572;BME280;44459;43.522;24.470;2023-02-18T00:12:29;100844.06;;;4.36;74.12
57572;BME280;44459;43.522;24.470;2023-02-18T00:14:55;100851.03;;;4.35;74.55
57572;BME280;44459;43.522;24.470;2023-02-18T00:17:20;100846.69;;;4.36;74.67
57572;BME280;44459;43.522;24.470;2023-02-18T00:19:46;100845.91;;;4.38;74.28
57572;BME280;44459;43.522;24.470;2023-02-18T00:22:11;100850.97;;;4.34;74.56
57572;BME280;44459;43.522;24.470;2023-02-18T00:24:37;100849.34;;;4.37;74.83
57572;BME280;44459;43.522;24.470;2023-02-18T00:27:03;100841.50;;;4.37;74.62
57572;BME280;44459;43.522;24.470;2023-02-18T00:29:28;100837.19;;;4.38;74.80
57572;BME280;44459;43.522;24.470;2023-02-18T00:31:54;100821.38;;;4.35;74.61
57572;BME280;44459;43.522;24.470;2023-02-18T00:34:20;100819.47;;;4.31;74.47
57572;BME280;44459;43.522;24.470;2023-02-18T00:36:45;100828.44;;;4.37;74.33
57572;BME280;44459;43.522;24.470;2023-02-18T00:39:11;100817.94;;;4.36;74.38
57572;BME280;44459;43.522;24.470;2023-02-18T00:41:37;100816.38;;;4.41;73.74
57572;BME280;44459;43.522;24.470;2023-02-18T00:44:03;100824.66;;;4.51;73.37
57572;BME280;44459;43.522;24.470;2023-02-18T00:46:29;100821.66;;;4.63;72.58
57572;BME280;44459;43.522;24.470;2023-02-18T00:48:54;100812.13;;;4.65;72.73
57572;BME280;44459;43.522;24.470;2023-02-18T00:51:21;100808.66;;;4.65;72.88
57572;BME280;44459;43.522;24.470;2023-02-18T00:53:47;100809.78;;;4.71;72.56
57572;BME280;44459;43.522;24.470;2023-02-18T00:56:13;100801.81;;;4.68;72.38
57572;BME280;44459;43.522;24.470;2023-02-18T00:58:39;100801.13;;;4.74;72.46
57572;BME280;44459;43.522;24.470;2023-02-18T01:01:05;100807.56;;;4.82;72.32
57572;BME280;44459;43.522;24.470;2023-02-18T01:03:31;100798.72;;;4.78;71.92
57572;BME280;44459;43.522;24.470;2023-02-18T01:05:56;100797.94;;;4.81;71.98
57572;BME280;44459;43.522;24.470;2023-02-18T01:08:22;100793.94;;;4.90;71.94
57572;BME280;44459;43.522;24.470;2023-02-18T01:10:51;100782.47;;;4.87;71.76
57572;BME280;44459;43.522;24.470;2023-02-18T01:13:17;100793.09;;;4.91;71.57
57572;BME280;44459;43.522;24.470;2023-02-18T01:15:42;100778.22;;;4.90;71.64
57572;BME280;44459;43.522;24.470;2023-02-18T01:18:08;100760.72;;;4.88;71.25
57572;BME280;44459;43.522;24.470;2023-02-18T01:20:36;100759.91;;;4.90;70.92
57572;BME280;44459;43.522;24.470;2023-02-18T01:23:02;100767.06;;;4.94;70.74
57572;BME280;44459;43.522;24.470;2023-02-18T01:25:28;100762.00;;;4.99;70.29
57572;BME280;44459;43.522;24.470;2023-02-18T01:27:53;100770.06;;;5.05;70.31
57572;BME280;44459;43.522;24.470;2023-02-18T01:30:18;100752.66;;;5.05;69.88
57572;BME280;44459;43.522;24.470;2023-02-18T01:32:45;100757.31;;;5.14;69.70
57572;BME280;44459;43.522;24.470;2023-02-18T01:35:13;100748.69;;;5.17;69.72
57572;BME280;44459;43.522;24.470;2023-02-18T01:37:38;100744.28;;;5.16;69.96
57572;BME280;44459;43.522;24.470;2023-02-18T01:40:05;100742.38;;;5.12;70.30
57572;BME280;44459;43.522;24.470;2023-02-18T01:42:31;100733.63;;;5.10;70.39
57572;BME280;44459;43.522;24.470;2023-02-18T01:48:30;100746.13;;;4.94;70.70
57572;BME280;44459;43.522;24.470;2023-02-18T01:51:12;100735.06;;;5.01;70.57
57572;BME280;44459;43.522;24.470;2023-02-18T01:53:47;100739.56;;;5.05;70.41
57572;BME280;44459;43.522;24.470;2023-02-18T01:56:24;100733.50;;;5.06;70.51
57572;BME280;44459;43.522;24.470;2023-02-18T01:58:51;100731.63;;;5.02;70.43
57572;BME280;44459;43.522;24.470;2023-02-18T02:01:18;100734.13;;;4.99;70.61
57572;BME280;44459;43.522;24.470;2023-02-18T02:03:44;100736.59;;;4.96;70.85
57572;BME280;44459;43.522;24.470;2023-02-18T02:06:15;100743.28;;;4.88;70.87
57572;BME280;44459;43.522;24.470;2023-02-18T02:08:41;100740.47;;;4.82;70.89
57572;BME280;44459;43.522;24.470;2023-02-18T02:11:20;100752.75;;;4.85;71.31
57572;BME280;44459;43.522;24.470;2023-02-18T02:16:36;100740.78;;;4.91;71.54
57572;BME280;44459;43.522;24.470;2023-02-18T02:25:10;100753.75;;;5.12;71.48
57572;BME280;44459;43.522;24.470;2023-02-18T02:34:00;100728.03;;;5.00;72.10
57572;BME280;44459;43.522;24.470;2023-02-18T02:36:53;100711.00;;;4.88;72.87
57572;BME280;44459;43.522;24.470;2023-02-18T02:39:26;100710.00;;;4.84;73.09
57572;BME280;44459;43.522;24.470;2023-02-18T02:42:44;100715.34;;;4.87;73.62
57572;BME280;44459;43.522;24.470;2023-02-18T02:45:37;100725.03;;;4.90;73.47
57572;BME280;44459;43.522;24.470;2023-02-18T02:50:52;100723.09;;;4.84;73.86
57572;BME280;44459;43.522;24.470;2023-02-18T02:53:26;100722.31;;;4.87;73.91
57572;BME280;44459;43.522;24.470;2023-02-18T02:55:52;100718.94;;;4.89;74.16
57572;BME280;44459;43.522;24.470;2023-02-18T02:58:21;100723.19;;;4.87;74.40
57572;BME280;44459;43.522;24.470;2023-02-18T03:12:33;100723.16;;;4.86;75.05
57572;BME280;44459;43.522;24.470;2023-02-18T03:15:22;100718.56;;;4.80;75.58
57572;BME280;44459;43.522;24.470;2023-02-18T03:17:56;100723.97;;;4.85;75.82
57572;BME280;44459;43.522;24.470;2023-02-18T03:23:48;100714.91;;;4.99;75.27
57572;BME280;44459;43.522;24.470;2023-02-18T03:26:18;100718.47;;;5.01;75.41
57572;BME280;44459;43.522;24.470;2023-02-18T03:28:45;100714.06;;;5.00;75.52
57572;BME280;44459;43.522;24.470;2023-02-18T03:31:16;100721.34;;;5.08;75.22
57572;BME280;44459;43.522;24.470;2023-02-18T03:33:51;100716.03;;;5.05;75.17
57572;BME280;44459;43.522;24.470;2023-02-18T03:36:20;100727.47;;;5.09;75.48
57572;BME280;44459;43.522;24.470;2023-02-18T03:39:02;100721.25;;;5.05;75.54
57572;BME280;44459;43.522;24.470;2023-02-18T03:41:28;100728.38;;;5.10;75.77
57572;BME280;44459;43.522;24.470;2023-02-18T03:43:58;100728.38;;;5.10;75.45
57572;BME280;44459;43.522;24.470;2023-02-18T03:46:26;100721.28;;;5.07;75.96
57572;BME280;44459;43.522;24.470;2023-02-18T03:48:51;100728.38;;;5.10;75.51
57572;BME280;44459;43.522;24.470;2023-02-18T03:51:18;100721.47;;;5.12;75.81
57572;BME280;44459;43.522;24.470;2023-02-18T03:53:44;100727.59;;;5.12;75.83
57572;BME280;44459;43.522;24.470;2023-02-18T03:56:09;100728.28;;;5.06;76.06
57572;BME280;44459;43.522;24.470;2023-02-18T03:58:35;100746.69;;;5.10;76.33
57572;BME280;44459;43.522;24.470;2023-02-18T04:01:00;100738.84;;;5.10;76.40
57572;BME280;44459;43.522;24.470;2023-02-18T04:03:26;100735.25;;;5.07;76.71
57572;BME280;44459;43.522;24.470;2023-02-18T04:05:51;100730.94;;;5.08;76.90
57572;BME280;44459;43.522;24.470;2023-02-18T04:08:17;100735.16;;;5.04;77.07
57572;BME280;44459;43.522;24.470;2023-02-18T04:10:42;100726.69;;;5.12;77.01
57572;BME280;44459;43.522;24.470;2023-02-18T04:13:08;100722.44;;;5.14;77.15
57572;BME280;44459;43.522;24.470;2023-02-18T04:15:33;100717.34;;;5.18;76.80
57572;BME280;44459;43.522;24.470;2023-02-18T04:17:59;100707.31;;;5.30;76.09
57572;BME280;44459;43.522;24.470;2023-02-18T04:20:25;100707.03;;;5.48;75.09
57572;BME280;44459;43.522;24.470;2023-02-18T04:22:50;100705.97;;;5.68;73.95
57572;BME280;44459;43.522;24.470;2023-02-18T04:25:15;100699.88;;;5.94;71.93
57572;BME280;44459;43.522;24.470;2023-02-18T04:27:41;100694.00;;;6.30;70.00
57572;BME280;44459;43.522;24.470;2023-02-18T04:30:07;100701.53;;;6.47;69.20
57572;BME280;44459;43.522;24.470;2023-02-18T04:32:32;100705.47;;;6.63;68.74
57572;BME280;44459;43.522;24.470;2023-02-18T04:34:58;100698.91;;;6.77;67.50
57572;BME280;44459;43.522;24.470;2023-02-18T04:37:23;100686.28;;;6.94;66.85
57572;BME280;44459;43.522;24.470;2023-02-18T04:39:49;100690.06;;;7.05;66.28
57572;BME280;44459;43.522;24.470;2023-02-18T04:42:14;100680.63;;;7.12;66.25
57572;BME280;44459;43.522;24.470;2023-02-18T04:44:40;100676.41;;;7.17;65.91
57572;BME280;44459;43.522;24.470;2023-02-18T04:47:06;100667.75;;;7.21;65.60
57572;BME280;44459;43.522;24.470;2023-02-18T04:49:31;100667.88;;;7.25;65.64
57572;BME280;44459;43.522;24.470;2023-02-18T04:51:57;100669.00;;;7.35;65.63
57572;BME280;44459;43.522;24.470;2023-02-18T04:54:22;100668.25;;;7.39;65.43
57572;BME280;44459;43.522;24.470;2023-02-18T04:56:48;100660.38;;;7.39;65.62
57572;BME280;44459;43.522;24.470;2023-02-18T04:59:13;100659.41;;;7.37;65.39
57572;BME280;44459;43.522;24.470;2023-02-18T05:01:39;100670.06;;;7.41;65.07
57572;BME280;44459;43.522;24.470;2023-02-18T05:04:05;100675.56;;;7.52;64.61
57572;BME280;44459;43.522;24.470;2023-02-18T05:06:31;100659.13;;;7.59;64.67
57572;BME280;44459;43.522;24.470;2023-02-18T05:08:56;100658.38;;;7.65;64.56
57572;BME280;44459;43.522;24.470;2023-02-18T05:11:21;100663.69;;;7.68;64.49
57572;BME280;44459;43.522;24.470;2023-02-18T05:13:47;100661.84;;;7.64;65.25
57572;BME280;44459;43.522;24.470;2023-02-18T05:16:12;100657.41;;;7.61;65.41
57572;BME280;44459;43.522;24.470;2023-02-18T05:18:38;100656.50;;;7.60;65.93
57572;BME280;44459;43.522;24.470;2023-02-18T05:21:04;100652.91;;;7.55;66.13
57572;BME280;44459;43.522;24.470;2023-02-18T05:23:30;100654.50;;;7.50;66.73
57572;BME280;44459;43.522;24.470;2023-02-18T05:25:55;100673.72;;;7.48;66.94
57572;BME280;44459;43.522;24.470;2023-02-18T05:28:21;100657.97;;;7.48;66.69
57572;BME280;44459;43.522;24.470;2023-02-18T05:30:46;100667.66;;;7.50;66.62
57572;BME280;44459;43.522;24.470;2023-02-18T05:33:11;100665.00;;;7.49;67.14
57572;BME280;44459;43.522;24.470;2023-02-18T05:35:37;100665.22;;;7.58;66.53
57572;BME280;44459;43.522;24.470;2023-02-18T05:38:02;100668.59;;;7.54;67.34
57572;BME280;44459;43.522;24.470;2023-02-18T05:40:28;100668.66;;;7.55;66.35
57572;BME280;44459;43.522;24.470;2023-02-18T05:42:53;100660.16;;;7.67;65.50
57572;BME280;44459;43.522;24.470;2023-02-18T05:45:19;100653.44;;;7.77;65.04
57572;BME280;44459;43.522;24.470;2023-02-18T05:47:44;100649.31;;;7.88;64.50
57572;BME280;44459;43.522;24.470;2023-02-18T05:50:10;100634.59;;;7.96;64.94
57572;BME280;44459;43.522;24.470;2023-02-18T05:52:35;100636.25;;;7.92;65.35
57572;BME280;44459;43.522;24.470;2023-02-18T05:55:00;100645.03;;;7.93;65.50
57572;BME280;44459;43.522;24.470;2023-02-18T05:57:26;100642.53;;;7.99;65.34
57572;BME280;44459;43.522;24.470;2023-02-18T05:59:51;100647.00;;;8.01;65.74
57572;BME280;44459;43.522;24.470;2023-02-18T06:02:17;100647.13;;;8.07;66.21
57572;BME280;44459;43.522;24.470;2023-02-18T06:04:42;100640.16;;;8.09;65.07
57572;BME280;44459;43.522;24.470;2023-02-18T06:07:08;100641.50;;;8.28;63.28
57572;BME280;44459;43.522;24.470;2023-02-18T06:09:33;100646.38;;;8.52;61.74
57572;BME280;44459;43.522;24.470;2023-02-18T06:11:58;100649.47;;;8.73;60.69
57572;BME280;44459;43.522;24.470;2023-02-18T06:14:24;100634.88;;;8.90;60.11
57572;BME280;44459;43.522;24.470;2023-02-18T06:16:49;100641.34;;;9.07;59.24
57572;BME280;44459;43.522;24.470;2023-02-18T06:19:15;100648.59;;;9.21;59.23
57572;BME280;44459;43.522;24.470;2023-02-18T06:21:40;100652.28;;;9.30;59.18
57572;BME280;44459;43.522;24.470;2023-02-18T06:24:06;100651.47;;;9.34;58.89
57572;BME280;44459;43.522;24.470;2023-02-18T06:26:32;100644.53;;;9.38;58.59
57572;BME280;44459;43.522;24.470;2023-02-18T06:28:58;100646.41;;;9.45;58.33
57572;BME280;44459;43.522;24.470;2023-02-18T06:31:23;100641.25;;;9.51;57.85
57572;BME280;44459;43.522;24.470;2023-02-18T06:33:49;100653.72;;;9.63;57.80
57572;BME280;44459;43.522;24.470;2023-02-18T06:36:14;100643.19;;;9.63;57.91
57572;BME280;44459;43.522;24.470;2023-02-18T06:38:43;100647.69;;;9.68;57.79
57572;BME280;44459;43.522;24.470;2023-02-18T06:41:10;100647.75;;;9.73;57.67
57572;BME280;44459;43.522;24.470;2023-02-18T06:43:36;100651.41;;;9.82;56.97
57572;BME280;44459;43.522;24.470;2023-02-18T06:46:02;100646.38;;;9.96;56.36
57572;BME280;44459;43.522;24.470;2023-02-18T06:48:28;100654.50;;;10.09;55.77
57572;BME280;44459;43.522;24.470;2023-02-18T06:50:54;100660.03;;;10.26;56.15
57572;BME280;44459;43.522;24.470;2023-02-18T06:53:20;100650.47;;;10.36;55.72
57572;BME280;44459;43.522;24.470;2023-02-18T06:55:45;100654.16;;;10.47;56.23
57572;BME280;44459;43.522;24.470;2023-02-18T06:58:11;100666.56;;;10.54;56.38
57572;BME280;44459;43.522;24.470;2023-02-18T07:00:37;100666.63;;;10.60;57.06
57572;BME280;44459;43.522;24.470;2023-02-18T07:03:03;100660.50;;;10.63;56.90
57572;BME280;44459;43.522;24.470;2023-02-18T07:05:29;100661.53;;;10.72;56.97
57572;BME280;44459;43.522;24.470;2023-02-18T07:07:54;100659.84;;;10.79;56.66
57572;BME280;44459;43.522;24.470;2023-02-18T07:10:20;100659.94;;;10.88;56.43
57572;BME280;44459;43.522;24.470;2023-02-18T07:12:46;100655.72;;;11.05;56.19
57572;BME280;44459;43.522;24.470;2023-02-18T07:15:11;100659.38;;;11.16;55.63
57572;BME280;44459;43.522;24.470;2023-02-18T07:17:37;100665.78;;;11.38;55.80
57572;BME280;44459;43.522;24.470;2023-02-18T07:20:03;100652.75;;;11.60;54.09
57572;BME280;44459;43.522;24.470;2023-02-18T07:22:29;100660.91;;;11.85;53.15
57572;BME280;44459;43.522;24.470;2023-02-18T07:24:54;100651.38;;;12.06;50.34
57572;BME280;44459;43.522;24.470;2023-02-18T07:27:20;100661.34;;;12.48;47.20
57572;BME280;44459;43.522;24.470;2023-02-18T07:29:46;100664.13;;;12.85;46.42
57572;BME280;44459;43.522;24.470;2023-02-18T07:32:13;100661.63;;;13.15;45.58
57572;BME280;44459;43.522;24.470;2023-02-18T07:34:38;100662.56;;;13.43;44.19
57572;BME280;44459;43.522;24.470;2023-02-18T07:37:04;100659.94;;;13.70;43.45
57572;BME280;44459;43.522;24.470;2023-02-18T07:39:40;100667.00;;;13.97;42.62
57572;BME280;44459;43.522;24.470;2023-02-18T07:42:06;100654.56;;;14.23;41.74
57572;BME280;44459;43.522;24.470;2023-02-18T07:44:31;100656.31;;;14.53;42.00
57572;BME280;44459;43.522;24.470;2023-02-18T07:46:57;100662.25;;;15.13;41.10
57572;BME280;44459;43.522;24.470;2023-02-18T07:49:22;100660.38;;;15.25;40.93
57572;BME280;44459;43.522;24.470;2023-02-18T07:51:49;100668.28;;;15.40;41.01
57572;BME280;44459;43.522;24.470;2023-02-18T07:54:15;100672.03;;;15.06;41.64
57572;BME280;44459;43.522;24.470;2023-02-18T07:56:40;100664.19;;;14.76;42.03
57572;BME280;44459;43.522;24.470;2023-02-18T07:59:07;100673.13;;;14.56;41.92
57572;BME280;44459;43.522;24.470;2023-02-18T08:01:33;100666.09;;;14.39;42.54
57572;BME280;44459;43.522;24.470;2023-02-18T08:03:58;100661.66;;;14.20;43.38
57572;BME280;44459;43.522;24.470;2023-02-18T08:06:33;100666.13;;;14.08;42.89
57572;BME280;44459;43.522;24.470;2023-02-18T08:08:59;100663.44;;;13.96;43.34
57572;BME280;44459;43.522;24.470;2023-02-18T08:11:25;100664.34;;;13.86;44.14
57572;BME280;44459;43.522;24.470;2023-02-18T08:13:50;100668.78;;;13.81;44.84
57572;BME280;44459;43.522;24.470;2023-02-18T08:16:17;100660.84;;;13.81;45.05
57572;BME280;44459;43.522;24.470;2023-02-18T08:18:44;100659.94;;;13.76;45.19
57572;BME280;44459;43.522;24.470;2023-02-18T08:21:12;100661.72;;;13.74;44.79
57572;BME280;44459;43.522;24.470;2023-02-18T08:23:37;100660.81;;;13.69;45.19
57572;BME280;44459;43.522;24.470;2023-02-18T08:26:03;100654.63;;;13.66;45.00
57572;BME280;44459;43.522;24.470;2023-02-18T08:28:28;100654.63;;;13.67;45.28
57572;BME280;44459;43.522;24.470;2023-02-18T08:30:54;100651.06;;;13.68;45.30
57572;BME280;44459;43.522;24.470;2023-02-18T08:33:19;100647.56;;;13.69;45.75
57572;BME280;44459;43.522;24.470;2023-02-18T08:35:46;100650.19;;;13.78;44.71
57572;BME280;44459;43.522;24.470;2023-02-18T08:38:12;100647.56;;;13.84;44.72
57572;BME280;44459;43.522;24.470;2023-02-18T08:40:38;100641.38;;;13.91;44.46
57572;BME280;44459;43.522;24.470;2023-02-18T08:43:05;100644.00;;;14.02;44.41
57572;BME280;44459;43.522;24.470;2023-02-18T08:45:30;100650.19;;;13.96;44.12
57572;BME280;44459;43.522;24.470;2023-02-18T08:47:56;100650.19;;;13.96;44.22
57572;BME280;44459;43.522;24.470;2023-02-18T08:50:21;100650.19;;;13.90;44.79
57572;BME280;44459;43.522;24.470;2023-02-18T08:52:51;100647.56;;;13.84;44.75
57572;BME280;44459;43.522;24.470;2023-02-18T08:55:16;100652.84;;;13.89;44.86
57572;BME280;44459;43.522;24.470;2023-02-18T08:57:44;100654.63;;;13.91;45.01
57572;BME280;44459;43.522;24.470;2023-02-18T09:00:11;100651.09;;;13.98;44.70
57572;BME280;44459;43.522;24.470;2023-02-18T09:02:38;100642.22;;;14.07;44.42
57572;BME280;44459;43.522;24.470;2023-02-18T09:05:04;100651.06;;;14.23;44.01
57572;BME280;44459;43.522;24.470;2023-02-18T09:07:29;100658.13;;;14.40;44.06
57572;BME280;44459;43.522;24.470;2023-02-18T09:09:55;100656.31;;;14.45;42.84
57572;BME280;44459;43.522;24.470;2023-02-18T09:12:20;100663.41;;;14.45;43.47
57572;BME280;44459;43.522;24.470;2023-02-18T09:14:46;100664.28;;;14.48;42.52
57572;BME280;44459;43.522;24.470;2023-02-18T09:17:12;100652.78;;;14.45;43.36
57572;BME280;44459;43.522;24.470;2023-02-18T09:19:38;100652.78;;;14.45;42.78
57572;BME280;44459;43.522;24.470;2023-02-18T09:22:03;100652.81;;;14.39;43.45
57572;BME280;44459;43.522;24.470;2023-02-18T09:24:29;100657.22;;;14.29;43.61
57572;BME280;44459;43.522;24.470;2023-02-18T09:26:54;100666.97;;;14.17;44.09
57572;BME280;44459;43.522;24.470;2023-02-18T09:29:20;100674.06;;;14.07;44.71
57572;BME280;44459;43.522;24.470;2023-02-18T09:31:45;100663.44;;;13.92;44.96
57572;BME280;44459;43.522;24.470;2023-02-18T09:34:11;100655.50;;;13.95;45.24
57572;BME280;44459;43.522;24.470;2023-02-18T09:36:37;100659.91;;;13.93;45.43
57572;BME280;44459;43.522;24.470;2023-02-18T09:39:04;100665.25;;;13.91;45.14
57572;BME280;44459;43.522;24.470;2023-02-18T09:41:40;100651.06;;;13.95;44.98
57572;BME280;44459;43.522;24.470;2023-02-18T09:44:17;100647.50;;;14.02;44.63
57572;BME280;44459;43.522;24.470;2023-02-18T09:46:51;100644.84;;;14.10;43.70
57572;BME280;44459;43.522;24.470;2023-02-18T09:49:22;100643.97;;;14.14;43.81
57572;BME280;44459;43.522;24.470;2023-02-18T09:51:49;100643.09;;;14.09;43.62
57572;BME280;44459;43.522;24.470;2023-02-18T09:54:17;100634.25;;;14.08;43.88
57572;BME280;44459;43.522;24.470;2023-02-18T09:56:44;100630.69;;;14.06;44.22
57572;BME280;44459;43.522;24.470;2023-02-18T09:59:15;100626.28;;;14.02;43.52
57572;BME280;44459;43.522;24.470;2023-02-18T10:01:42;100646.66;;;13.97;44.08
57572;BME280;44459;43.522;24.470;2023-02-18T10:04:30;100643.09;;;13.95;44.25
57572;BME280;44459;43.522;24.470;2023-02-18T10:07:00;100644.00;;;13.94;44.37
57572;BME280;44459;43.522;24.470;2023-02-18T10:09:37;100645.78;;;13.91;44.25
57572;BME280;44459;43.522;24.470;2023-02-18T10:12:14;100640.47;;;13.88;44.04
57572;BME280;44459;43.522;24.470;2023-02-18T10:14:42;100644.88;;;13.86;44.64
57572;BME280;44459;43.522;24.470;2023-02-18T10:17:13;100647.53;;;13.89;44.53
57572;BME280;44459;43.522;24.470;2023-02-18T10:19:41;100635.16;;;13.83;44.73
57572;BME280;44459;43.522;24.470;2023-02-18T10:22:11;100628.97;;;13.86;44.10
57572;BME280;44459;43.522;24.470;2023-02-18T10:24:40;100639.59;;;13.87;44.06
57572;BME280;44459;43.522;24.470;2023-02-18T10:27:08;100644.00;;;13.88;44.20
57572;BME280;44459;43.522;24.470;2023-02-18T10:29:34;100639.59;;;13.90;45.00
57572;BME280;44459;43.522;24.470;2023-02-18T10:37:28;100613.91;;;13.92;44.32
57572;BME280;44459;43.522;24.470;2023-02-18T10:50:51;100590.91;;;13.85;43.69
57572;BME280;44459;43.522;24.470;2023-02-18T10:55:47;100570.59;;;13.81;44.01
57572;BME280;44459;43.522;24.470;2023-02-18T10:58:27;100584.75;;;13.80;44.40
57572;BME280;44459;43.522;24.470;2023-02-18T11:00:54;100575.03;;;13.81;44.01
57572;BME280;44459;43.522;24.470;2023-02-18T11:03:24;100582.97;;;13.82;44.03
57572;BME280;44459;43.522;24.470;2023-02-18T11:05:56;100590.06;;;13.83;43.87
57572;BME280;44459;43.522;24.470;2023-02-18T11:08:27;100577.66;;;13.85;43.57
57572;BME280;44459;43.522;24.470;2023-02-18T11:10:54;100576.75;;;13.89;43.70
57572;BME280;44459;43.522;24.470;2023-02-18T11:13:29;100565.28;;;13.87;43.41
57572;BME280;44459;43.522;24.470;2023-02-18T11:15:58;100571.44;;;13.92;43.13
57572;BME280;44459;43.522;24.470;2023-02-18T11:18:41;100572.34;;;13.91;43.22
57572;BME280;44459;43.522;24.470;2023-02-18T11:21:30;100559.06;;;13.93;43.64
57572;BME280;44459;43.522;24.470;2023-02-18T11:23:56;100544.00;;;13.92;43.39
57572;BME280;44459;43.522;24.470;2023-02-18T11:26:31;100538.72;;;13.92;43.11
57572;BME280;44459;43.522;24.470;2023-02-18T11:29:24;100529.88;;;13.97;43.54
57572;BME280;44459;43.522;24.470;2023-02-18T11:31:52;100519.25;;;13.93;44.00
57572;BME280;44459;43.522;24.470;2023-02-18T11:34:26;100528.09;;;14.01;43.23
57572;BME280;44459;43.522;24.470;2023-02-18T11:36:53;100528.97;;;14.01;43.09
57572;BME280;44459;43.522;24.470;2023-02-18T11:39:25;100541.34;;;14.05;43.17
57572;BME280;44459;43.522;24.470;2023-02-18T11:42:00;100531.59;;;14.09;42.99
57572;BME280;44459;43.522;24.470;2023-02-18T11:44:35;100526.25;;;14.13;43.45
57572;BME280;44459;43.522;24.470;2023-02-18T11:49:41;100511.22;;;14.16;43.52
57572;BME280;44459;43.522;24.470;2023-02-18T11:52:25;100504.13;;;14.18;43.51
57572;BME280;44459;43.522;24.470;2023-02-18T11:55:00;100510.31;;;14.18;43.58
57572;BME280;44459;43.522;24.470;2023-02-18T11:57:27;100502.38;;;14.12;44.15
57572;BME280;44459;43.522;24.470;2023-02-18T11:59:53;100498.84;;;14.10;43.86
57572;BME280;44459;43.522;24.470;2023-02-18T12:05:20;100467.09;;;13.87;44.35
57572;BME280;44459;43.522;24.470;2023-02-18T12:07:55;100479.44;;;13.97;44.65
57572;BME280;44459;43.522;24.470;2023-02-18T12:10:30;100475.03;;;13.93;44.99
57572;BME280;44459;43.522;24.470;2023-02-18T12:13:16;100461.75;;;13.89;45.52
57572;BME280;44459;43.522;24.470;2023-02-18T12:24:17;100473.28;;;13.83;46.30
57572;BME280;44459;43.522;24.470;2023-02-18T12:43:14;100483.00;;;13.90;46.63
57572;BME280;44459;43.522;24.470;2023-02-18T12:57:11;100505.94;;;14.03;46.19
57572;BME280;44459;43.522;24.470;2023-02-18T13:05:43;100497.94;;;14.14;46.77
57572;BME280;44459;43.522;24.470;2023-02-18T13:16:15;100519.16;;;14.26;47.04
57572;BME280;44459;43.522;24.470;2023-02-18T13:21:20;100503.19;;;14.29;46.77
57572;BME280;44459;43.522;24.470;2023-02-18T13:23:51;100505.81;;;14.31;46.96
57572;BME280;44459;43.522;24.470;2023-02-18T13:26:20;100498.75;;;14.33;47.01
57572;BME280;44459;43.522;24.470;2023-02-18T13:29:14;100505.84;;;14.34;47.16
57572;BME280;44459;43.522;24.470;2023-02-18T13:32:23;100497.00;;;14.36;47.17
57572;BME280;44459;43.522;24.470;2023-02-18T13:34:36;100496.97;;;14.38;47.13
57572;BME280;44459;43.522;24.470;2023-02-18T13:37:18;100500.53;;;14.37;46.75
57572;BME280;44459;43.522;24.470;2023-02-18T13:39:55;100513.81;;;14.32;47.00
57572;BME280;44459;43.522;24.470;2023-02-18T13:42:29;100514.69;;;14.37;47.12
57572;BME280;44459;43.522;24.470;2023-02-18T13:52:41;100503.16;;;14.31;47.37
57572;BME280;44459;43.522;24.470;2023-02-18T13:55:17;100503.19;;;14.32;47.91
57572;BME280;44459;43.522;24.470;2023-02-18T13:57:46;100494.34;;;14.27;47.85
57572;BME280;44459;43.522;24.470;2023-02-18T14:00:21;100482.84;;;14.24;47.82
57572;BME280;44459;43.522;24.470;2023-02-18T14:02:56;100481.09;;;14.23;48.43
57572;BME280;44459;43.522;24.470;2023-02-18T14:05:24;100486.41;;;14.17;48.56
57572;BME280;44459;43.522;24.470;2023-02-18T14:08:11;100491.72;;;14.17;48.39
57572;BME280;44459;43.522;24.470;2023-02-18T14:10:37;100489.13;;;14.09;48.64
57572;BME280;44459;43.522;24.470;2023-02-18T14:13:37;100497.09;;;14.09;48.63
57572;BME280;44459;43.522;24.470;2023-02-18T14:16:04;100491.78;;;14.06;48.89
57572;BME280;44459;43.522;24.470;2023-02-18T14:28:44;100494.47;;;13.98;49.30
57572;BME280;44459;43.522;24.470;2023-02-18T14:31:45;100493.59;;;13.93;49.49
57572;BME280;44459;43.522;24.470;2023-02-18T14:50:49;100488.28;;;13.93;49.97
57572;BME280;44459;43.522;24.470;2023-02-18T14:53:21;100483.88;;;13.91;49.78
57572;BME280;44459;43.522;24.470;2023-02-18T14:55:49;100482.97;;;13.93;50.22
57572;BME280;44459;43.522;24.470;2023-02-18T14:58:37;100475.91;;;13.92;50.23
57572;BME280;44459;43.522;24.470;2023-02-18T15:01:13;100479.47;;;13.90;50.21
57572;BME280;44459;43.522;24.470;2023-02-18T15:03:40;100474.13;;;13.93;50.38
57572;BME280;44459;43.522;24.470;2023-02-18T15:08:49;100482.09;;;13.93;50.13
57572;BME280;44459;43.522;24.470;2023-02-18T15:11:15;100468.00;;;13.85;50.70
57572;BME280;44459;43.522;24.470;2023-02-18T15:13:43;100468.88;;;13.79;50.84
57572;BME280;44459;43.522;24.470;2023-02-18T15:16:25;100468.88;;;13.76;51.16
57572;BME280;44459;43.522;24.470;2023-02-18T15:18:59;100467.13;;;13.74;51.47
57572;BME280;44459;43.522;24.470;2023-02-18T15:23:54;100468.03;;;13.70;51.44
57572;BME280;44459;43.522;24.470;2023-02-18T15:26:24;100467.16;;;13.54;51.45